createdAt,value
2023-01-25T00:02:07.472Z,1.70
2023-01-25T00:04:36.471Z,2.00
2023-01-25T00:07:03.041Z,1.80
2023-01-25T00:09:31.733Z,1.70
2023-01-25T00:11:58.337Z,1.40
2023-01-25T00:14:25.055Z,1.60
2023-01-25T00:16:51.952Z,1.60
2023-01-25T00:19:18.635Z,1.40
2023-01-25T00:21:45.279Z,1.30
2023-01-25T00:24:12.062Z,1.30
2023-01-25T00:26:43.710Z,1.40
2023-01-25T00:29:14.089Z,1.50
2023-01-25T00:31:45.071Z,1.50
2023-01-25T00:34:20.799Z,1.60
2023-01-25T00:36:51.801Z,1.40
2023-01-25T00:39:18.325Z,1.40
2023-01-25T00:41:44.900Z,1.40
2023-01-25T00:44:11.517Z,1.70
2023-01-25T00:46:38.122Z,1.80
2023-01-25T00:49:04.685Z,1.90
2023-01-25T00:51:31.250Z,1.90
2023-01-25T00:53:57.787Z,2.00
2023-01-25T00:56:24.404Z,2.00
2023-01-25T00:58:51.047Z,1.80
2023-01-25T01:01:17.634Z,2.00
2023-01-25T01:03:44.213Z,1.90
2023-01-25T01:06:11.739Z,1.30
2023-01-25T01:08:39.307Z,1.60
2023-01-25T01:11:07.561Z,1.40
2023-01-25T01:13:34.833Z,1.30
2023-01-25T01:16:08.286Z,1.50
2023-01-25T01:18:37.587Z,1.40
2023-01-25T01:21:04.599Z,1.30
2023-01-25T01:23:32.137Z,1.40
2023-01-25T01:26:02.654Z,1.60
2023-01-25T01:28:32.398Z,1.20
2023-01-25T01:31:13.354Z,1.30
2023-01-25T01:33:39.896Z,1.60
2023-01-25T01:36:10.604Z,1.80
2023-01-25T01:38:37.187Z,1.80
2023-01-25T01:41:06.346Z,1.50
2023-01-25T01:43:32.896Z,1.10
2023-01-25T01:46:01.018Z,1.20
2023-01-25T01:48:33.392Z,1.20
2023-01-25T01:51:08.799Z,1.30
2023-01-25T01:53:37.999Z,1.40
2023-01-25T01:56:06.395Z,1.40
2023-01-25T01:58:33.615Z,1.50
2023-01-25T02:01:00.514Z,1.30
2023-01-25T02:03:30.117Z,1.20
2023-01-25T02:05:56.685Z,1.40
2023-01-25T02:08:26.035Z,1.30
2023-01-25T02:10:52.888Z,1.10
2023-01-25T02:13:21.937Z,1.40
2023-01-25T02:15:50.546Z,1.40
2023-01-25T02:18:20.101Z,1.20
2023-01-25T02:20:48.545Z,1.60
2023-01-25T02:23:24.158Z,1.50
2023-01-25T02:25:51.161Z,1.20
2023-01-25T02:28:17.761Z,1.10
2023-01-25T02:30:45.089Z,1.50
2023-01-25T02:33:11.692Z,1.20
2023-01-25T02:35:42.948Z,1.10
2023-01-25T02:38:11.028Z,1.50
2023-01-25T02:41:00.857Z,1.50
2023-01-25T02:43:31.064Z,1.50
2023-01-25T02:46:03.606Z,1.40
2023-01-25T02:48:30.202Z,1.60
2023-01-25T02:50:59.204Z,1.70
2023-01-25T02:53:25.802Z,1.70
2023-01-25T02:55:54.648Z,1.80
2023-01-25T02:58:21.163Z,1.80
2023-01-25T03:00:47.719Z,1.90
2023-01-25T03:03:14.314Z,1.80
2023-01-25T03:05:40.897Z,1.60
2023-01-25T03:08:07.479Z,1.70
2023-01-25T03:10:34.125Z,1.50
2023-01-25T03:13:03.104Z,1.60
2023-01-25T03:15:29.978Z,1.40
2023-01-25T03:17:56.938Z,1.20
2023-01-25T03:20:23.488Z,1.10
2023-01-25T03:22:52.478Z,1.00
2023-01-25T03:25:19.011Z,1.10
2023-01-25T03:27:45.562Z,1.30
2023-01-25T03:30:14.302Z,1.40
2023-01-25T03:32:40.861Z,1.50
2023-01-25T03:35:07.829Z,1.00
2023-01-25T03:37:34.471Z,1.00
2023-01-25T03:40:01.143Z,0.90
2023-01-25T03:42:30.070Z,1.30
2023-01-25T03:44:56.629Z,1.30
2023-01-25T03:47:23.197Z,1.40
2023-01-25T03:49:52.168Z,1.00
2023-01-25T03:52:18.833Z,1.40
2023-01-25T03:54:45.399Z,1.30
2023-01-25T03:57:12.911Z,1.30
2023-01-25T03:59:41.834Z,1.30
2023-01-25T04:02:12.735Z,1.30
2023-01-25T04:04:39.428Z,1.00
2023-01-25T04:07:05.982Z,1.10
2023-01-25T04:09:32.543Z,0.70
2023-01-25T04:12:01.290Z,0.80
2023-01-25T04:14:43.314Z,0.60
2023-01-25T04:17:10.827Z,0.60
2023-01-25T04:19:37.561Z,0.90
2023-01-25T04:22:06.259Z,0.90
2023-01-25T04:24:32.827Z,1.20
2023-01-25T04:26:59.369Z,1.50
2023-01-25T04:29:39.176Z,1.40
2023-01-25T04:32:07.017Z,1.70
2023-01-25T04:34:33.735Z,1.50
2023-01-25T04:37:00.318Z,1.20
2023-01-25T04:39:26.879Z,0.90
2023-01-25T04:41:55.915Z,0.90
2023-01-25T04:44:22.455Z,1.00
2023-01-25T04:46:49.539Z,1.20
2023-01-25T04:49:18.665Z,1.00
2023-01-25T04:51:45.202Z,0.90
2023-01-25T04:54:11.768Z,1.20
2023-01-25T04:56:38.829Z,1.50
2023-01-25T04:59:05.344Z,1.60
2023-01-25T05:01:33.497Z,1.50
2023-01-25T05:04:00.147Z,1.30
2023-01-25T05:06:26.717Z,1.10
2023-01-25T05:08:55.728Z,1.20
2023-01-25T05:11:22.272Z,1.20
2023-01-25T05:13:48.851Z,1.50
2023-01-25T05:16:15.467Z,1.50
2023-01-25T05:18:48.897Z,1.00
2023-01-25T05:21:34.249Z,0.90
2023-01-25T05:24:05.774Z,0.80
2023-01-25T05:26:50.951Z,0.90
2023-01-25T05:29:17.512Z,1.00
2023-01-25T05:31:46.535Z,1.00
2023-01-25T05:34:13.090Z,0.90
2023-01-25T05:36:41.756Z,0.90
2023-01-25T05:39:10.693Z,1.10
2023-01-25T05:41:37.230Z,1.10
2023-01-25T05:44:06.184Z,1.50
2023-01-25T05:46:32.754Z,1.40
2023-01-25T05:48:59.314Z,1.40
2023-01-25T05:51:25.864Z,1.40
2023-01-25T05:53:58.700Z,1.50
2023-01-25T05:56:25.464Z,1.40
2023-01-25T05:58:56.039Z,1.40
2023-01-25T06:01:22.678Z,1.70
2023-01-25T06:03:49.446Z,1.60
2023-01-25T06:06:16.224Z,1.70
2023-01-25T06:08:47.829Z,1.60
2023-01-25T06:11:15.826Z,1.50
2023-01-25T06:13:42.623Z,1.50
2023-01-25T06:16:09.429Z,1.30
2023-01-25T06:18:36.493Z,1.30
2023-01-25T06:21:05.689Z,1.40
2023-01-25T06:23:32.318Z,1.20
2023-01-25T06:26:01.819Z,1.70
2023-01-25T06:28:32.424Z,1.40
2023-01-25T06:31:05.086Z,0.90
2023-01-25T06:33:32.191Z,1.20
2023-01-25T06:36:06.169Z,1.20
2023-01-25T06:38:33.071Z,1.40
2023-01-25T06:41:00.894Z,1.30
2023-01-25T06:43:29.530Z,1.30
2023-01-25T06:45:59.827Z,1.20
2023-01-25T06:48:29.257Z,1.10
2023-01-25T06:51:00.224Z,0.90
2023-01-25T06:53:27.972Z,1.00
2023-01-25T06:56:05.097Z,1.00
2023-01-25T06:58:32.105Z,0.90
2023-01-25T07:01:02.988Z,1.10
2023-01-25T07:03:32.719Z,1.30
2023-01-25T07:06:06.436Z,1.00
2023-01-25T07:08:33.732Z,1.00
2023-01-25T07:11:01.680Z,1.20
2023-01-25T07:13:28.792Z,1.30
2023-01-25T07:15:59.328Z,1.50
2023-01-25T07:18:26.572Z,1.30
2023-01-25T07:20:53.195Z,1.40
2023-01-25T07:23:20.200Z,1.50
2023-01-25T07:25:47.471Z,1.40
2023-01-25T07:28:14.303Z,1.30
2023-01-25T07:30:43.970Z,1.10
2023-01-25T07:33:13.034Z,1.30
2023-01-25T07:35:39.710Z,1.30
2023-01-25T07:38:08.807Z,1.20
2023-01-25T07:40:37.997Z,1.30
2023-01-25T07:43:04.840Z,1.30
2023-01-25T07:45:31.472Z,1.60
2023-01-25T07:47:58.884Z,1.30
2023-01-25T07:50:26.465Z,1.50
2023-01-25T07:52:53.513Z,1.30
2023-01-25T07:55:22.486Z,1.60
2023-01-25T07:57:53.768Z,1.50
2023-01-25T08:00:20.443Z,1.00
2023-01-25T08:02:49.821Z,1.00
2023-01-25T08:05:16.513Z,0.80
2023-01-25T08:07:43.085Z,0.90
2023-01-25T08:10:10.078Z,1.00
2023-01-25T08:12:36.756Z,1.40
2023-01-25T08:15:04.092Z,1.30
2023-01-25T08:17:34.011Z,1.50
2023-01-25T08:20:04.431Z,1.30
2023-01-25T08:22:31.113Z,1.30
2023-01-25T08:24:57.757Z,1.00
2023-01-25T08:27:24.345Z,1.00
2023-01-25T08:29:53.795Z,1.50
2023-01-25T08:32:20.590Z,1.40
2023-01-25T08:34:47.589Z,1.40
2023-01-25T08:37:14.334Z,1.40
2023-01-25T08:39:40.931Z,1.30
2023-01-25T08:42:09.977Z,1.30
2023-01-25T08:44:36.557Z,1.50
2023-01-25T08:47:03.132Z,1.50
2023-01-25T08:49:31.103Z,1.40
2023-01-25T08:51:58.602Z,1.40
2023-01-25T08:54:25.234Z,1.50
2023-01-25T08:56:52.006Z,1.40
2023-01-25T08:59:18.551Z,1.50
2023-01-25T09:01:45.239Z,1.50
2023-01-25T09:04:11.801Z,1.60
2023-01-25T09:06:38.589Z,1.50
2023-01-25T09:09:05.478Z,1.40
2023-01-25T09:11:37.049Z,0.80
2023-01-25T09:14:08.486Z,1.00
2023-01-25T09:16:35.125Z,1.10
2023-01-25T09:19:02.567Z,1.10
2023-01-25T09:21:29.445Z,1.10
2023-01-25T09:24:11.465Z,1.10
2023-01-25T09:26:39.815Z,1.00
2023-01-25T09:29:08.003Z,1.10
2023-01-25T09:31:40.411Z,0.80
2023-01-25T09:34:08.565Z,0.80
2023-01-25T09:36:38.487Z,1.10
2023-01-25T09:39:05.345Z,0.90
2023-01-25T09:42:00.748Z,0.50
2023-01-25T09:44:41.863Z,0.60
2023-01-25T09:47:27.145Z,0.70
2023-01-25T09:50:00.759Z,0.80
2023-01-25T09:52:27.307Z,0.90
2023-01-25T09:54:56.047Z,0.50
2023-01-25T09:57:34.493Z,0.80
2023-01-25T10:00:04.244Z,0.90
2023-01-25T10:02:35.236Z,0.90
2023-01-25T10:05:07.759Z,1.00
2023-01-25T10:07:34.317Z,1.10
2023-01-25T10:10:05.607Z,0.90
2023-01-25T10:12:38.900Z,0.30
2023-01-25T10:15:17.049Z,0.80
2023-01-25T10:17:43.682Z,0.70
2023-01-25T10:20:10.545Z,0.80
2023-01-25T10:22:42.173Z,1.20
2023-01-25T10:25:21.245Z,1.40
2023-01-25T10:28:09.803Z,0.90
2023-01-25T10:30:44.173Z,0.90
2023-01-25T10:33:13.576Z,1.20
2023-01-25T10:35:46.034Z,1.30
2023-01-25T10:38:33.916Z,1.30
2023-01-25T10:41:21.883Z,1.40
2023-01-25T10:44:08.389Z,1.40
2023-01-25T10:46:35.230Z,1.40
2023-01-25T10:49:12.722Z,1.60
2023-01-25T10:51:39.290Z,1.30
2023-01-25T10:54:06.231Z,1.50
2023-01-25T10:56:36.292Z,1.50
2023-01-25T10:59:29.107Z,1.40
2023-01-25T11:01:56.064Z,1.20
2023-01-25T11:04:33.640Z,1.00
2023-01-25T11:07:00.947Z,0.70
2023-01-25T11:09:38.164Z,0.70
2023-01-25T11:12:17.608Z,0.50
2023-01-25T11:14:44.287Z,0.70
2023-01-25T11:17:30.112Z,1.00
2023-01-25T11:20:16.637Z,1.10
2023-01-25T11:22:49.370Z,0.90
2023-01-25T11:25:24.915Z,0.70
2023-01-25T11:27:51.742Z,0.30
2023-01-25T11:30:21.484Z,0.50
2023-01-25T11:32:48.521Z,1.20
2023-01-25T11:35:15.881Z,1.20
2023-01-25T11:37:54.953Z,1.20
2023-01-25T11:40:28.681Z,1.00
2023-01-25T11:43:02.121Z,1.00
2023-01-25T11:45:39.506Z,1.00
2023-01-25T11:48:06.379Z,1.20
2023-01-25T11:50:42.436Z,1.10
2023-01-25T11:53:22.169Z,1.10
2023-01-25T11:55:54.493Z,1.00
2023-01-25T11:58:27.130Z,1.00
2023-01-25T12:01:05.255Z,0.90
2023-01-25T12:03:50.613Z,0.90
2023-01-25T12:06:40.637Z,1.00
2023-01-25T12:09:25.585Z,1.00
2023-01-25T12:12:01.015Z,0.90
2023-01-25T12:14:36.071Z,1.00
2023-01-25T12:17:17.351Z,1.00
2023-01-25T12:19:43.873Z,1.10
2023-01-25T12:22:26.285Z,1.20
2023-01-25T12:25:04.980Z,1.20
2023-01-25T12:27:55.003Z,1.30
2023-01-25T12:30:24.590Z,1.40
2023-01-25T12:32:59.482Z,1.50
2023-01-25T12:35:39.302Z,1.40
2023-01-25T12:38:12.849Z,1.40
2023-01-25T12:40:48.941Z,1.30
2023-01-25T12:43:18.651Z,1.50
2023-01-25T12:45:49.017Z,1.60
2023-01-25T12:48:18.725Z,1.60
2023-01-25T12:50:52.111Z,1.60
2023-01-25T12:53:24.340Z,1.80
2023-01-25T12:55:51.612Z,1.20
2023-01-25T12:58:37.035Z,1.40
2023-01-25T13:01:04.260Z,1.40
2023-01-25T13:03:36.607Z,1.60
2023-01-25T13:06:12.232Z,1.40
2023-01-25T13:08:48.950Z,1.60
2023-01-25T13:11:15.803Z,1.70
2023-01-25T13:13:42.434Z,1.60
2023-01-25T13:16:27.958Z,1.70
2023-01-25T13:18:56.668Z,1.80
2023-01-25T13:21:40.283Z,1.50
2023-01-25T13:24:13.797Z,1.40
2023-01-25T13:26:45.862Z,1.70
2023-01-25T13:29:31.498Z,1.60
2023-01-25T13:31:59.470Z,1.40
2023-01-25T13:34:39.210Z,1.60
2023-01-25T13:37:25.798Z,1.60
2023-01-25T13:39:53.738Z,1.80
2023-01-25T13:42:25.350Z,1.60
2023-01-25T13:45:14.218Z,1.60
2023-01-25T13:47:42.336Z,1.50
2023-01-25T13:50:21.216Z,1.50
2023-01-25T13:52:57.973Z,1.00
2023-01-25T13:55:25.345Z,1.10
2023-01-25T13:57:52.090Z,1.00
2023-01-25T14:00:19.279Z,1.10
2023-01-25T14:02:49.468Z,1.40
2023-01-25T14:05:19.969Z,1.50
2023-01-25T14:07:51.946Z,1.30
2023-01-25T14:10:23.518Z,1.40
2023-01-25T14:12:51.118Z,1.50
2023-01-25T14:15:19.069Z,1.30
2023-01-25T14:17:45.662Z,1.30
2023-01-25T14:20:21.833Z,1.60
2023-01-25T14:22:53.062Z,1.50
2023-01-25T14:25:20.704Z,1.70
2023-01-25T14:27:52.550Z,1.70
2023-01-25T14:30:22.232Z,1.50
2023-01-25T14:32:51.811Z,1.60
2023-01-25T14:35:27.228Z,1.80
2023-01-25T14:38:00.250Z,1.70
2023-01-25T14:40:28.301Z,1.80
2023-01-25T14:42:55.916Z,1.60
2023-01-25T14:45:23.991Z,1.70
2023-01-25T14:47:59.493Z,1.50
2023-01-25T14:50:33.320Z,1.80
2023-01-25T14:53:08.181Z,1.60
2023-01-25T14:55:35.702Z,1.50
2023-01-25T14:58:02.753Z,1.80
2023-01-25T15:00:32.068Z,1.70
2023-01-25T15:02:59.977Z,1.70
2023-01-25T15:05:27.903Z,1.60
2023-01-25T15:07:54.511Z,1.70
2023-01-25T15:10:21.108Z,1.70
2023-01-25T15:13:13.540Z,1.60
2023-01-25T15:15:53.178Z,1.80
2023-01-25T15:18:38.470Z,1.50
2023-01-25T15:21:07.605Z,1.60
2023-01-25T15:23:36.332Z,1.80
2023-01-25T15:26:11.794Z,1.80
2023-01-25T15:28:38.359Z,1.80
2023-01-25T15:31:05.260Z,1.80
2023-01-25T15:33:32.501Z,1.60
2023-01-25T15:35:59.135Z,1.50
2023-01-25T15:38:25.972Z,1.70
2023-01-25T15:40:52.870Z,1.60
2023-01-25T15:43:19.878Z,1.50
2023-01-25T15:45:50.289Z,1.60
2023-01-25T15:48:18.483Z,1.40
2023-01-25T15:50:45.135Z,1.60
2023-01-25T15:53:14.947Z,1.60
2023-01-25T15:55:42.379Z,1.50
2023-01-25T15:58:10.848Z,1.40
2023-01-25T16:00:37.439Z,1.60
2023-01-25T16:03:04.100Z,1.60
2023-01-25T16:05:30.863Z,1.30
2023-01-25T16:07:57.426Z,1.60
2023-01-25T16:10:24.752Z,1.50
2023-01-25T16:12:51.366Z,1.50
2023-01-25T16:15:17.939Z,1.30
2023-01-25T16:17:44.768Z,1.40
2023-01-25T16:20:18.667Z,1.60
2023-01-25T16:22:45.321Z,1.30
2023-01-25T16:25:11.977Z,1.50
2023-01-25T16:27:38.654Z,1.30
2023-01-25T16:30:07.888Z,1.40
2023-01-25T16:32:34.648Z,1.50
2023-01-25T16:35:01.270Z,1.70
2023-01-25T16:37:27.857Z,1.50
2023-01-25T16:39:54.401Z,1.40
2023-01-25T16:42:22.696Z,1.40
2023-01-25T16:44:52.589Z,1.60
2023-01-25T16:47:19.177Z,1.40
2023-01-25T16:49:45.753Z,1.50
2023-01-25T16:52:12.367Z,1.60
2023-01-25T16:54:38.971Z,1.60
2023-01-25T16:57:20.016Z,1.40
2023-01-25T16:59:47.276Z,1.70
2023-01-25T17:02:13.980Z,1.80
2023-01-25T17:04:40.630Z,2.20
2023-01-25T17:07:09.189Z,2.50
2023-01-25T17:09:35.841Z,2.50
2023-01-25T17:12:02.499Z,2.80
2023-01-25T17:14:29.043Z,2.90
2023-01-25T17:16:55.691Z,3.10
2023-01-25T17:19:22.844Z,3.20
2023-01-25T17:21:49.414Z,3.00
2023-01-25T17:24:20.820Z,3.10
2023-01-25T17:26:47.522Z,3.20
2023-01-25T17:29:14.128Z,3.40
2023-01-25T17:31:42.037Z,3.10
2023-01-25T17:34:11.648Z,3.40
2023-01-25T17:36:38.295Z,3.20
